createdAt,value
2024-02-07T00:00:42.991Z,890.00
2024-02-07T00:01:42.992Z,892.00
2024-02-07T00:02:43.020Z,890.00
2024-02-07T00:03:43.111Z,889.00
2024-02-07T00:04:43.204Z,886.00
2024-02-07T00:05:43.262Z,886.00
2024-02-07T00:06:43.170Z,886.00
2024-02-07T00:07:43.264Z,887.00
2024-02-07T00:08:43.266Z,891.00
2024-02-07T00:09:43.303Z,894.00
2024-02-07T00:10:43.365Z,896.00
2024-02-07T00:11:43.339Z,895.00
2024-02-07T00:12:43.383Z,896.00
2024-02-07T00:13:43.498Z,897.00
2024-02-07T00:14:43.451Z,898.00
2024-02-07T00:15:43.496Z,897.00
2024-02-07T00:16:43.610Z,895.00
2024-02-07T00:17:43.592Z,894.00
2024-02-07T00:18:43.683Z,891.00
2024-02-07T00:19:43.734Z,889.00
2024-02-07T00:20:43.665Z,888.00
2024-02-07T00:21:43.720Z,885.00
2024-02-07T00:22:43.771Z,882.00
2024-02-07T00:23:43.730Z,882.00
2024-02-07T00:24:43.751Z,881.00
2024-02-07T00:25:43.843Z,880.00
2024-02-07T00:26:43.813Z,881.00
2024-02-07T00:27:43.827Z,880.00
2024-02-07T00:28:43.877Z,879.00
2024-02-07T00:29:43.870Z,879.00
2024-02-07T00:30:43.876Z,878.00
2024-02-07T00:31:43.934Z,877.00
2024-02-07T00:32:43.990Z,879.00
2024-02-07T00:33:43.960Z,877.00
2024-02-07T00:34:44.105Z,877.00
2024-02-07T00:35:44.070Z,877.00
2024-02-07T00:36:44.028Z,875.00
2024-02-07T00:37:44.099Z,875.00
2024-02-07T00:38:44.052Z,874.00
2024-02-07T00:39:44.091Z,874.00
2024-02-07T00:40:44.115Z,873.00
2024-02-07T00:41:44.126Z,869.00
2024-02-07T00:42:44.139Z,866.00
2024-02-07T00:43:44.147Z,865.00
2024-02-07T00:44:44.144Z,864.00
2024-02-07T00:45:44.179Z,864.00
2024-02-07T00:46:44.197Z,861.00
2024-02-07T00:47:44.197Z,862.00
2024-02-07T00:48:44.203Z,863.00
2024-02-07T00:49:44.232Z,862.00
2024-02-07T00:50:44.195Z,861.00
2024-02-07T00:51:44.191Z,860.00
2024-02-07T00:52:44.271Z,858.00
2024-02-07T00:53:44.211Z,857.00
2024-02-07T00:54:44.229Z,860.00
2024-02-07T00:55:44.249Z,861.00
2024-02-07T00:56:44.238Z,861.00
2024-02-07T00:57:44.279Z,856.00
2024-02-07T00:58:44.397Z,855.00
2024-02-07T00:59:44.418Z,858.00
2024-02-07T01:00:44.354Z,860.00
2024-02-07T01:01:44.423Z,860.00
2024-02-07T01:02:44.305Z,866.00
2024-02-07T01:03:44.322Z,869.00
2024-02-07T01:04:44.450Z,868.00
2024-02-07T01:05:44.433Z,866.00
2024-02-07T01:06:44.382Z,867.00
2024-02-07T01:07:44.454Z,868.00
2024-02-07T01:08:44.389Z,868.00
2024-02-07T01:09:44.350Z,865.00
2024-02-07T01:10:44.486Z,864.00
2024-02-07T01:11:44.426Z,863.00
2024-02-07T01:12:44.383Z,861.00
2024-02-07T01:13:44.433Z,858.00
2024-02-07T01:14:44.424Z,858.00
2024-02-07T01:15:44.397Z,859.00
2024-02-07T01:16:44.448Z,861.00
2024-02-07T01:17:44.490Z,863.00
2024-02-07T01:18:44.432Z,863.00
2024-02-07T01:19:44.562Z,860.00
2024-02-07T01:20:44.532Z,859.00
2024-02-07T01:21:44.430Z,856.00
2024-02-07T01:22:44.551Z,857.00
2024-02-07T01:23:44.467Z,858.00
2024-02-07T01:24:44.465Z,858.00
2024-02-07T01:25:44.507Z,856.00
2024-02-07T01:26:44.471Z,854.00
2024-02-07T01:27:44.545Z,857.00
2024-02-07T01:28:44.525Z,855.00
2024-02-07T01:29:44.488Z,854.00
2024-02-07T01:30:44.483Z,852.00
2024-02-07T01:31:44.556Z,849.00
2024-02-07T01:32:44.501Z,849.00
2024-02-07T01:33:44.621Z,848.00
2024-02-07T01:34:44.532Z,848.00
2024-02-07T01:35:44.519Z,849.00
2024-02-07T01:36:44.538Z,849.00
2024-02-07T01:37:44.833Z,848.00
2024-02-07T01:38:44.531Z,848.00
2024-02-07T01:39:44.527Z,847.00
2024-02-07T01:40:44.681Z,844.00
2024-02-07T01:41:44.542Z,843.00
2024-02-07T01:42:44.548Z,842.00
2024-02-07T01:43:44.622Z,842.00
2024-02-07T01:44:44.562Z,842.00
2024-02-07T01:45:44.671Z,843.00
2024-02-07T01:46:44.625Z,842.00
2024-02-07T01:47:44.635Z,841.00
2024-02-07T01:48:45.001Z,840.00
2024-02-07T01:49:44.655Z,838.00
2024-02-07T01:50:44.610Z,836.00
2024-02-07T01:51:44.632Z,835.00
2024-02-07T01:52:44.664Z,835.00
2024-02-07T01:53:44.614Z,837.00
2024-02-07T01:54:44.697Z,837.00
2024-02-07T01:55:44.660Z,842.00
2024-02-07T01:56:44.725Z,843.00
2024-02-07T01:57:44.716Z,844.00
2024-02-07T01:58:44.721Z,843.00
2024-02-07T01:59:44.654Z,840.00
2024-02-07T02:00:44.741Z,838.00
2024-02-07T02:01:44.709Z,835.00
2024-02-07T02:02:44.689Z,836.00
2024-02-07T02:03:44.708Z,835.00
2024-02-07T02:04:44.876Z,833.00
2024-02-07T02:05:44.689Z,830.00
2024-02-07T02:06:44.809Z,828.00
2024-02-07T02:07:45.055Z,827.00
2024-02-07T02:08:44.721Z,828.00
2024-02-07T02:09:44.713Z,826.00
2024-02-07T02:10:44.834Z,827.00
2024-02-07T02:11:44.759Z,825.00
2024-02-07T02:12:44.846Z,823.00
2024-02-07T02:13:44.855Z,824.00
2024-02-07T02:14:44.800Z,824.00
2024-02-07T02:15:44.795Z,823.00
2024-02-07T02:16:44.899Z,823.00
2024-02-07T02:17:44.843Z,826.00
2024-02-07T02:18:44.806Z,827.00
2024-02-07T02:19:44.957Z,826.00
2024-02-07T02:20:44.943Z,826.00
2024-02-07T02:21:44.836Z,828.00
2024-02-07T02:22:44.888Z,831.00
2024-02-07T02:23:44.849Z,832.00
2024-02-07T02:24:44.884Z,828.00
2024-02-07T02:25:44.893Z,827.00
2024-02-07T02:26:44.871Z,824.00
2024-02-07T02:27:44.884Z,822.00
2024-02-07T02:28:44.961Z,825.00
2024-02-07T02:29:44.882Z,824.00
2024-02-07T02:30:45.003Z,825.00
2024-02-07T02:31:44.931Z,824.00
2024-02-07T02:32:44.977Z,822.00
2024-02-07T02:33:44.927Z,826.00
2024-02-07T02:34:45.037Z,824.00
2024-02-07T02:35:44.942Z,826.00
2024-02-07T02:36:44.930Z,826.00
2024-02-07T02:37:45.014Z,823.00
2024-02-07T02:38:44.935Z,820.00
2024-02-07T02:39:44.933Z,820.00
2024-02-07T02:40:45.065Z,818.00
2024-02-07T02:41:44.966Z,818.00
2024-02-07T02:42:44.998Z,818.00
2024-02-07T02:43:45.116Z,820.00
2024-02-07T02:44:45.031Z,823.00
2024-02-07T02:45:44.980Z,822.00
2024-02-07T02:46:45.052Z,822.00
2024-02-07T02:47:45.097Z,820.00
2024-02-07T02:48:45.185Z,819.00
2024-02-07T02:49:45.107Z,819.00
2024-02-07T02:50:45.019Z,816.00
2024-02-07T02:51:45.028Z,816.00
2024-02-07T02:52:45.113Z,817.00
2024-02-07T02:53:45.051Z,818.00
2024-02-07T02:54:45.041Z,819.00
2024-02-07T02:55:45.065Z,817.00
2024-02-07T02:56:45.052Z,815.00
2024-02-07T02:57:45.062Z,816.00
2024-02-07T02:58:45.147Z,816.00
2024-02-07T02:59:45.085Z,812.00
2024-02-07T03:00:45.155Z,811.00
2024-02-07T03:01:45.123Z,811.00
2024-02-07T03:02:45.105Z,810.00
2024-02-07T03:03:45.097Z,805.00
2024-02-07T03:04:45.216Z,804.00
2024-02-07T03:05:45.288Z,805.00
2024-02-07T03:06:45.128Z,802.00
2024-02-07T03:07:45.194Z,801.00
2024-02-07T03:08:45.140Z,802.00
2024-02-07T03:09:45.133Z,799.00
2024-02-07T03:10:45.192Z,799.00
2024-02-07T03:11:45.146Z,804.00
2024-02-07T03:12:45.160Z,800.00
2024-02-07T03:13:45.205Z,800.00
2024-02-07T03:14:45.182Z,801.00
2024-02-07T03:15:45.184Z,800.00
2024-02-07T03:16:45.255Z,799.00
2024-02-07T03:17:45.218Z,800.00
2024-02-07T03:18:45.257Z,798.00
2024-02-07T03:19:45.218Z,801.00
2024-02-07T03:20:45.230Z,801.00
2024-02-07T03:21:45.247Z,799.00
2024-02-07T03:22:45.327Z,798.00
2024-02-07T03:23:45.268Z,798.00
2024-02-07T03:24:45.270Z,799.00
2024-02-07T03:25:45.275Z,797.00
2024-02-07T03:26:45.302Z,797.00
2024-02-07T03:27:45.295Z,799.00
2024-02-07T03:28:45.314Z,797.00
2024-02-07T03:29:45.312Z,795.00
2024-02-07T03:30:45.323Z,796.00
2024-02-07T03:31:45.469Z,800.00
2024-02-07T03:32:45.389Z,798.00
2024-02-07T03:33:45.376Z,799.00
2024-02-07T03:34:45.393Z,799.00
2024-02-07T03:35:45.355Z,798.00
2024-02-07T03:36:45.371Z,799.00
2024-02-07T03:37:45.432Z,797.00
2024-02-07T03:38:45.391Z,797.00
2024-02-07T03:39:45.393Z,795.00
2024-02-07T03:40:45.444Z,793.00
2024-02-07T03:41:45.413Z,793.00
2024-02-07T03:42:45.432Z,792.00
2024-02-07T03:43:45.520Z,793.00
2024-02-07T03:44:45.424Z,793.00
2024-02-07T03:45:45.446Z,792.00
2024-02-07T03:46:45.502Z,790.00
2024-02-07T03:47:45.592Z,788.00
2024-02-07T03:48:45.476Z,788.00
2024-02-07T03:49:45.534Z,790.00
2024-02-07T03:50:45.453Z,791.00
2024-02-07T03:51:45.467Z,790.00
2024-02-07T03:52:45.526Z,792.00
2024-02-07T03:53:45.477Z,794.00
2024-02-07T03:54:45.499Z,796.00
2024-02-07T03:55:45.576Z,798.00
2024-02-07T03:56:45.567Z,796.00
2024-02-07T03:57:45.634Z,796.00
2024-02-07T03:58:45.745Z,795.00
2024-02-07T03:59:45.700Z,794.00
2024-02-07T04:00:45.752Z,795.00
2024-02-07T04:01:45.838Z,796.00
2024-02-07T04:02:45.861Z,796.00
2024-02-07T04:03:45.981Z,796.00
2024-02-07T04:04:46.139Z,796.00
2024-02-07T04:05:46.081Z,798.00
2024-02-07T04:06:46.235Z,799.00
2024-02-07T04:07:46.436Z,797.00
2024-02-07T04:08:46.453Z,797.00
2024-02-07T04:09:46.382Z,796.00
2024-02-07T04:10:46.433Z,797.00
2024-02-07T04:11:46.499Z,796.00
2024-02-07T04:12:46.566Z,797.00
2024-02-07T04:13:46.725Z,795.00
2024-02-07T04:14:46.701Z,794.00
2024-02-07T04:15:46.781Z,795.00
2024-02-07T04:16:46.985Z,794.00
2024-02-07T04:17:46.980Z,792.00
2024-02-07T04:18:47.082Z,790.00
2024-02-07T04:19:47.079Z,786.00
2024-02-07T04:20:47.125Z,784.00
2024-02-07T04:21:47.183Z,783.00
2024-02-07T04:22:47.285Z,785.00
2024-02-07T04:23:47.305Z,785.00
2024-02-07T04:24:47.323Z,779.00
2024-02-07T04:25:47.446Z,782.00
2024-02-07T04:26:47.410Z,783.00
2024-02-07T04:27:47.439Z,784.00
2024-02-07T04:28:47.563Z,785.00
2024-02-07T04:29:47.482Z,786.00
2024-02-07T04:30:47.487Z,788.00
2024-02-07T04:31:47.573Z,791.00
2024-02-07T04:32:47.557Z,792.00
2024-02-07T04:33:47.594Z,792.00
2024-02-07T04:34:47.606Z,792.00
2024-02-07T04:35:47.559Z,791.00
2024-02-07T04:36:47.567Z,792.00
2024-02-07T04:37:54.903Z,760.00
2024-02-07T04:38:54.817Z,766.00
2024-02-07T04:39:54.817Z,767.00
2024-02-07T04:40:54.871Z,765.00
2024-02-07T04:41:54.847Z,763.00
2024-02-07T04:42:54.842Z,764.00
2024-02-07T04:43:54.906Z,763.00
2024-02-07T04:44:54.851Z,763.00
2024-02-07T04:45:54.844Z,764.00
2024-02-07T04:46:54.941Z,764.00
2024-02-07T04:47:54.876Z,763.00
2024-02-07T04:48:54.952Z,763.00
2024-02-07T04:49:54.985Z,764.00
2024-02-07T04:50:54.840Z,764.00
2024-02-07T04:51:54.849Z,764.00
2024-02-07T04:52:54.967Z,762.00
2024-02-07T04:53:54.861Z,763.00
2024-02-07T04:54:54.846Z,765.00
2024-02-07T04:55:54.985Z,764.00
2024-02-07T04:56:54.865Z,762.00
2024-02-07T04:57:54.852Z,763.00
2024-02-07T04:58:54.997Z,760.00
2024-02-07T04:59:54.857Z,758.00
2024-02-07T05:00:54.872Z,758.00
2024-02-07T05:01:54.939Z,756.00
2024-02-07T05:02:54.873Z,754.00
2024-02-07T05:03:54.907Z,753.00
2024-02-07T05:04:54.952Z,756.00
2024-02-07T05:05:54.875Z,758.00
2024-02-07T05:06:54.893Z,758.00
2024-02-07T05:07:54.899Z,758.00
2024-02-07T05:08:54.878Z,759.00
2024-02-07T05:09:54.881Z,758.00
2024-02-07T05:10:55.000Z,757.00
2024-02-07T05:11:54.904Z,756.00
2024-02-07T05:12:54.966Z,755.00
2024-02-07T05:13:55.096Z,754.00
2024-02-07T05:14:55.078Z,756.00
2024-02-07T05:15:55.086Z,756.00
2024-02-07T05:16:55.156Z,756.00
2024-02-07T05:17:55.211Z,757.00
2024-02-07T05:18:55.287Z,756.00
2024-02-07T05:19:55.325Z,758.00
2024-02-07T05:20:55.315Z,758.00
2024-02-07T05:21:55.363Z,759.00
2024-02-07T05:22:55.464Z,759.00
2024-02-07T05:23:55.441Z,757.00
2024-02-07T05:24:55.519Z,757.00
2024-02-07T05:25:55.553Z,756.00
2024-02-07T05:26:55.581Z,756.00
2024-02-07T05:27:55.669Z,759.00
2024-02-07T05:28:55.815Z,761.00
2024-02-07T05:29:55.728Z,762.00
2024-02-07T05:30:55.800Z,763.00
2024-02-07T05:31:56.198Z,761.00
2024-02-07T05:32:56.080Z,761.00
2024-02-07T05:33:55.974Z,760.00
2024-02-07T05:34:56.057Z,762.00
2024-02-07T05:35:55.998Z,763.00
2024-02-07T05:36:56.007Z,763.00
2024-02-07T05:37:56.136Z,763.00
2024-02-07T05:38:56.079Z,763.00
2024-02-07T05:39:56.120Z,765.00
2024-02-07T05:40:56.207Z,764.00
2024-02-07T05:41:56.196Z,761.00
2024-02-07T05:42:56.259Z,760.00
2024-02-07T05:43:56.411Z,758.00
2024-02-07T05:44:56.354Z,759.00
2024-02-07T05:45:56.384Z,760.00
2024-02-07T05:46:56.564Z,764.00
2024-02-07T05:47:56.490Z,765.00
2024-02-07T05:48:56.547Z,763.00
2024-02-07T05:49:56.603Z,762.00
2024-02-07T05:50:56.565Z,760.00
2024-02-07T05:51:58.840Z,759.00
2024-02-07T05:52:56.694Z,757.00
2024-02-07T05:53:56.628Z,758.00
2024-02-07T05:54:56.626Z,758.00
2024-02-07T05:55:56.747Z,757.00
2024-02-07T05:56:57.685Z,756.00
2024-02-07T05:57:56.636Z,756.00
2024-02-07T05:58:56.642Z,757.00
2024-02-07T05:59:56.626Z,756.00
2024-02-07T06:00:56.643Z,754.00
2024-02-07T06:01:56.659Z,757.00
2024-02-07T06:02:56.629Z,755.00
2024-02-07T06:03:56.692Z,753.00
2024-02-07T06:04:56.695Z,752.00
2024-02-07T06:05:56.647Z,751.00
2024-02-07T06:06:56.670Z,749.00
2024-02-07T06:07:56.731Z,748.00
2024-02-07T06:08:56.667Z,747.00
2024-02-07T06:09:56.637Z,746.00
2024-02-07T06:10:56.815Z,744.00
2024-02-07T06:11:56.696Z,743.00
2024-02-07T06:12:56.733Z,744.00
2024-02-07T06:13:56.834Z,745.00
2024-02-07T06:14:56.790Z,745.00
2024-02-07T06:15:56.828Z,745.00
2024-02-07T06:16:56.912Z,746.00
2024-02-07T06:17:56.951Z,746.00
2024-02-07T06:18:56.950Z,745.00
2024-02-07T06:19:57.098Z,745.00
2024-02-07T06:20:57.085Z,742.00
2024-02-07T06:21:57.008Z,742.00
2024-02-07T06:22:57.103Z,739.00
2024-02-07T06:23:57.062Z,738.00
2024-02-07T06:24:57.126Z,734.00
2024-02-07T06:25:57.224Z,734.00
2024-02-07T06:26:57.202Z,733.00
2024-02-07T06:27:57.222Z,732.00
2024-02-07T06:28:57.345Z,729.00
2024-02-07T06:29:57.243Z,730.00
2024-02-07T06:30:57.306Z,727.00
2024-02-07T06:31:57.345Z,728.00
2024-02-07T06:32:57.398Z,728.00
2024-02-07T06:33:57.440Z,734.00
2024-02-07T06:34:57.484Z,736.00
2024-02-07T06:35:57.517Z,751.00
2024-02-07T06:36:57.468Z,760.00
2024-02-07T06:37:57.664Z,777.00
2024-02-07T06:38:57.572Z,803.00
2024-02-07T06:39:58.500Z,848.00
2024-02-07T06:40:57.648Z,876.00
2024-02-07T06:41:58.500Z,906.00
2024-02-07T06:42:57.989Z,998.00
2024-02-07T06:43:57.773Z,1018.00
2024-02-07T06:44:57.683Z,1128.00
2024-02-07T06:45:57.712Z,1147.00
2024-02-07T06:46:57.762Z,1249.00
2024-02-07T06:47:57.849Z,1282.00
2024-02-07T06:48:57.788Z,1280.00
2024-02-07T06:49:57.951Z,1284.00
2024-02-07T06:50:57.825Z,1299.00
2024-02-07T06:51:57.896Z,1342.00
2024-02-07T06:52:58.077Z,1362.00
2024-02-07T06:53:58.008Z,1384.00
2024-02-07T06:54:58.060Z,1472.00
2024-02-07T06:56:00.272Z,1499.00
2024-02-07T06:56:58.258Z,1519.00
2024-02-07T06:57:58.375Z,1542.00
2024-02-07T06:58:58.518Z,1574.00
2024-02-07T06:59:58.466Z,1608.00
2024-02-07T07:00:58.540Z,1666.00
2024-02-07T07:01:58.644Z,1685.00
2024-02-07T07:02:58.729Z,1711.00
2024-02-07T07:03:58.981Z,1737.00
2024-02-07T07:04:58.827Z,1809.00
2024-02-07T07:05:58.900Z,1854.00
2024-02-07T07:06:58.929Z,1869.00
2024-02-07T07:07:59.026Z,1884.00
2024-02-07T07:08:59.040Z,1904.00
2024-02-07T07:09:59.090Z,1975.00
2024-02-07T07:10:59.225Z,1992.00
2024-02-07T07:11:59.181Z,2008.00
2024-02-07T07:12:59.228Z,2031.00
2024-02-07T07:14:02.670Z,2064.00
2024-02-07T07:14:59.261Z,2088.00
2024-02-07T07:15:59.292Z,2111.00
2024-02-07T07:16:59.366Z,2180.00
2024-02-07T07:17:59.356Z,2223.00
2024-02-07T07:18:59.386Z,2234.00
2024-02-07T07:19:59.323Z,2264.00
2024-02-07T07:20:59.285Z,2345.00
2024-02-07T07:21:59.290Z,2391.00
2024-02-07T07:23:08.092Z,2420.00
2024-02-07T07:24:00.359Z,2442.00
2024-02-07T07:24:59.292Z,2465.00
2024-02-07T07:25:59.311Z,2496.00
2024-02-07T07:27:02.549Z,2579.00
2024-02-07T07:27:59.328Z,2596.00
2024-02-07T07:28:59.426Z,2597.00
2024-02-07T07:29:59.312Z,2602.00
2024-02-07T07:30:59.323Z,2619.00
2024-02-07T07:31:59.540Z,2636.00
2024-02-07T07:32:59.419Z,2658.00
2024-02-07T07:33:59.326Z,2768.00
2024-02-07T07:34:59.425Z,2829.00
2024-02-07T07:35:59.393Z,2844.00
2024-02-07T07:36:59.439Z,2875.00
2024-02-07T07:37:59.423Z,2925.00
2024-02-07T07:38:59.334Z,2934.00
2024-02-07T07:39:59.342Z,2873.00
2024-02-07T07:40:59.525Z,2650.00
2024-02-07T07:41:59.338Z,2335.00
2024-02-07T07:42:59.346Z,2263.00
2024-02-07T07:43:59.470Z,2084.00
2024-02-07T07:44:59.373Z,2083.00
2024-02-07T07:45:59.380Z,1973.00
2024-02-07T07:46:59.389Z,1890.00
2024-02-07T07:47:59.459Z,1863.00
2024-02-07T07:48:59.424Z,1836.00
2024-02-07T07:49:59.380Z,1723.00
2024-02-07T07:50:59.375Z,1702.00
2024-02-07T07:51:59.389Z,1678.00
2024-02-07T07:52:59.457Z,1581.00
2024-02-07T07:53:59.384Z,1551.00
2024-02-07T07:54:59.420Z,1455.00
2024-02-07T07:55:59.502Z,1426.00
2024-02-07T07:56:59.357Z,1404.00
2024-02-07T07:57:59.405Z,1332.00
2024-02-07T07:58:59.415Z,1306.00
2024-02-07T07:59:59.431Z,1237.00
2024-02-07T08:00:59.407Z,1211.00
2024-02-07T08:01:59.433Z,1193.00
2024-02-07T08:02:59.361Z,1179.00
2024-02-07T08:03:59.417Z,1161.00
2024-02-07T08:04:59.471Z,1140.00
2024-02-07T08:05:59.456Z,1116.00
2024-02-07T08:06:59.403Z,1079.00
2024-02-07T08:07:59.590Z,1062.00
2024-02-07T08:08:59.381Z,1049.00
2024-02-07T08:09:59.383Z,1024.00
2024-02-07T08:10:59.389Z,1000.00
2024-02-07T08:11:59.378Z,981.00
2024-02-07T08:12:59.531Z,965.00
2024-02-07T08:13:59.527Z,944.00
2024-02-07T08:14:59.425Z,924.00
2024-02-07T08:15:59.635Z,906.00
2024-02-07T08:16:59.455Z,893.00
2024-02-07T08:17:59.468Z,880.00
2024-02-07T08:18:59.427Z,871.00
2024-02-07T08:19:59.415Z,861.00
2024-02-07T08:20:59.408Z,849.00
2024-02-07T08:21:59.396Z,834.00
2024-02-07T08:22:59.470Z,820.00
2024-02-07T08:23:59.403Z,808.00
2024-02-07T08:24:59.412Z,793.00
2024-02-07T08:25:59.465Z,778.00
2024-02-07T08:26:59.505Z,772.00
2024-02-07T08:27:59.542Z,769.00
2024-02-07T08:28:59.617Z,760.00
2024-02-07T08:29:59.628Z,753.00
2024-02-07T08:30:59.681Z,746.00
2024-02-07T08:32:01.629Z,740.00
2024-02-07T08:33:00.013Z,842.00
2024-02-07T08:34:00.639Z,921.00
2024-02-07T08:35:00.041Z,1046.00
2024-02-07T08:36:00.105Z,1111.00
2024-02-07T08:37:00.015Z,1240.00
2024-02-07T08:38:00.287Z,1267.00
2024-02-07T08:39:00.115Z,1292.00
2024-02-07T08:40:00.185Z,1367.00
2024-02-07T08:41:00.725Z,1363.00
2024-02-07T08:42:00.671Z,1408.00
2024-02-07T08:43:00.610Z,1430.00
2024-02-07T08:44:00.327Z,1426.00
2024-02-07T08:45:00.251Z,1386.00
2024-02-07T08:46:00.334Z,1331.00
2024-02-07T08:47:00.549Z,1300.00
2024-02-07T08:48:00.501Z,1260.00
2024-02-07T08:49:00.450Z,1221.00
2024-02-07T08:50:00.525Z,1150.00
2024-02-07T08:51:00.593Z,1129.00
2024-02-07T08:52:00.632Z,1108.00
2024-02-07T08:53:00.798Z,1028.00
2024-02-07T08:54:00.746Z,1013.00
2024-02-07T08:55:00.737Z,1000.00
2024-02-07T08:56:00.825Z,934.00
2024-02-07T08:57:00.794Z,921.00
2024-02-07T08:58:00.854Z,905.00
2024-02-07T08:59:00.925Z,894.00
2024-02-07T09:00:00.889Z,885.00
2024-02-07T09:01:00.956Z,872.00
2024-02-07T09:02:01.050Z,873.00
2024-02-07T09:03:00.982Z,864.00
2024-02-07T09:04:00.996Z,845.00
2024-02-07T09:05:01.075Z,831.00
2024-02-07T09:06:01.301Z,818.00
2024-02-07T09:07:01.178Z,808.00
2024-02-07T09:08:01.262Z,800.00
2024-02-07T09:09:01.308Z,794.00
2024-02-07T09:10:01.343Z,792.00
2024-02-07T09:11:01.483Z,791.00
2024-02-07T09:12:01.486Z,793.00
2024-02-07T09:13:01.570Z,800.00
2024-02-07T09:14:01.740Z,808.00
2024-02-07T09:15:01.719Z,813.00
2024-02-07T09:16:01.758Z,826.00
2024-02-07T09:17:01.883Z,850.00
2024-02-07T09:18:01.962Z,881.00
2024-02-07T09:19:02.001Z,922.00
2024-02-07T09:20:02.129Z,944.00
2024-02-07T09:21:02.118Z,957.00
2024-02-07T09:22:02.181Z,970.00
2024-02-07T09:23:02.254Z,992.00
2024-02-07T09:24:02.296Z,1041.00
2024-02-07T09:25:02.377Z,1052.00
2024-02-07T09:26:02.552Z,1045.00
2024-02-07T09:27:02.578Z,1031.00
2024-02-07T09:28:02.705Z,1019.00
2024-02-07T09:29:02.736Z,1004.00
2024-02-07T09:30:07.790Z,979.00
2024-02-07T09:31:03.631Z,966.00
2024-02-07T09:32:02.689Z,956.00
2024-02-07T09:33:03.189Z,944.00
2024-02-07T09:34:03.103Z,931.00
2024-02-07T09:35:02.754Z,924.00
2024-02-07T09:36:02.803Z,917.00
2024-02-07T09:37:02.651Z,905.00
2024-02-07T09:38:02.836Z,898.00
2024-02-07T09:39:03.069Z,887.00
2024-02-07T09:40:02.679Z,871.00
2024-02-07T09:41:03.668Z,869.00
2024-02-07T09:42:02.659Z,871.00
2024-02-07T09:43:03.101Z,883.00
2024-02-07T09:44:02.746Z,948.00
2024-02-07T09:45:02.679Z,974.00
2024-02-07T09:46:02.719Z,1117.00
2024-02-07T09:47:02.839Z,1142.00
2024-02-07T09:48:03.233Z,1149.00
2024-02-07T09:49:02.842Z,1161.00
2024-02-07T09:50:02.939Z,1171.00
2024-02-07T09:51:02.820Z,1198.00
2024-02-07T09:52:02.837Z,1246.00
2024-02-07T09:53:03.145Z,1265.00
2024-02-07T09:54:02.885Z,1285.00
2024-02-07T09:55:02.960Z,1301.00
2024-02-07T09:56:02.983Z,1312.00
2024-02-07T09:57:02.900Z,1320.00
2024-02-07T09:58:02.959Z,1326.00
2024-02-07T09:59:02.992Z,1373.00
2024-02-07T10:00:03.060Z,1377.00
2024-02-07T10:01:03.141Z,1370.00
2024-02-07T10:02:03.400Z,1368.00
2024-02-07T10:03:03.255Z,1368.00
2024-02-07T10:04:03.306Z,1375.00
2024-02-07T10:05:03.485Z,1384.00
2024-02-07T10:06:03.457Z,1384.00
2024-02-07T10:07:03.484Z,1385.00
2024-02-07T10:08:03.585Z,1376.00
2024-02-07T10:09:03.629Z,1363.00
2024-02-07T10:10:03.719Z,1353.00
2024-02-07T10:11:03.752Z,1348.00
2024-02-07T10:12:03.835Z,1352.00
2024-02-07T10:13:04.612Z,1355.00
2024-02-07T10:14:04.167Z,1353.00
2024-02-07T10:15:04.032Z,1365.00
2024-02-07T10:16:06.485Z,1384.00
2024-02-07T10:17:04.194Z,1408.00
2024-02-07T10:18:04.157Z,1416.00
2024-02-07T10:19:04.107Z,1433.00
2024-02-07T10:20:04.150Z,1423.00
2024-02-07T10:21:04.093Z,1427.00
2024-02-07T10:22:04.103Z,1450.00
2024-02-07T10:23:04.213Z,1469.00
2024-02-07T10:24:04.607Z,1468.00
2024-02-07T10:25:04.084Z,1468.00
2024-02-07T10:26:04.122Z,1458.00
2024-02-07T10:27:04.098Z,1454.00
2024-02-07T10:28:04.126Z,1451.00
2024-02-07T10:29:04.220Z,1445.00
2024-02-07T10:30:04.111Z,1451.00
2024-02-07T10:31:04.104Z,1582.00
2024-02-07T10:32:04.170Z,1569.00
2024-02-07T10:33:04.694Z,1566.00
2024-02-07T10:34:04.259Z,1559.00
2024-02-07T10:35:04.187Z,1540.00
2024-02-07T10:36:04.150Z,1525.00
2024-02-07T10:37:04.106Z,1563.00
2024-02-07T10:38:04.226Z,1578.00
2024-02-07T10:39:04.701Z,1566.00
2024-02-07T10:40:05.109Z,1550.00
2024-02-07T10:41:04.312Z,1557.00
2024-02-07T10:42:04.118Z,1565.00
2024-02-07T10:43:04.117Z,1553.00
2024-02-07T10:44:04.162Z,1535.00
2024-02-07T10:45:04.130Z,1528.00
2024-02-07T10:46:04.976Z,1523.00
2024-02-07T10:47:04.263Z,1518.00
2024-02-07T10:48:04.239Z,1518.00
2024-02-07T10:49:04.870Z,1518.00
2024-02-07T10:50:04.310Z,1516.00
2024-02-07T10:51:04.206Z,1511.00
2024-02-07T10:52:04.122Z,1502.00
2024-02-07T10:53:04.644Z,1497.00
2024-02-07T10:54:04.628Z,1489.00
2024-02-07T10:55:04.134Z,1489.00
2024-02-07T10:56:04.268Z,1483.00
2024-02-07T10:57:04.124Z,1484.00
2024-02-07T10:58:04.145Z,1480.00
2024-02-07T10:59:04.176Z,1484.00
2024-02-07T11:00:04.209Z,1483.00
2024-02-07T11:01:04.244Z,1481.00
2024-02-07T11:02:04.233Z,1475.00
2024-02-07T11:03:04.140Z,1479.00
2024-02-07T11:04:04.199Z,1476.00
2024-02-07T11:05:04.409Z,1471.00
2024-02-07T11:06:04.457Z,1476.00
2024-02-07T11:07:04.398Z,1474.00
2024-02-07T11:08:04.464Z,1467.00
2024-02-07T11:09:04.434Z,1464.00
2024-02-07T11:10:04.527Z,1463.00
2024-02-07T11:11:04.612Z,1467.00
2024-02-07T11:12:04.538Z,1465.00
2024-02-07T11:13:04.555Z,1462.00
2024-02-07T11:14:04.645Z,1461.00
2024-02-07T11:15:04.643Z,1463.00
2024-02-07T11:16:06.837Z,1462.00
2024-02-07T11:17:04.762Z,1460.00
2024-02-07T11:18:04.830Z,1456.00
2024-02-07T11:19:04.845Z,1462.00
2024-02-07T11:20:04.884Z,1472.00
2024-02-07T11:21:04.889Z,1472.00
2024-02-07T11:22:05.422Z,1474.00
2024-02-07T11:23:05.068Z,1485.00
2024-02-07T11:24:05.012Z,1510.00
2024-02-07T11:25:05.108Z,1541.00
2024-02-07T11:26:05.154Z,1611.00
2024-02-07T11:27:05.163Z,1665.00
2024-02-07T11:28:05.158Z,1678.00
2024-02-07T11:29:07.448Z,1696.00
2024-02-07T11:30:05.207Z,1676.00
2024-02-07T11:31:05.208Z,1692.00
2024-02-07T11:32:05.249Z,1712.00
2024-02-07T11:33:05.732Z,1708.00
2024-02-07T11:34:05.276Z,1713.00
2024-02-07T11:35:05.395Z,1762.00
2024-02-07T11:36:05.323Z,1793.00
2024-02-07T11:37:05.308Z,1803.00
2024-02-07T11:38:05.295Z,1797.00
2024-02-07T11:39:05.226Z,1792.00
2024-02-07T11:40:05.234Z,1789.00
2024-02-07T11:41:05.270Z,1760.00
2024-02-07T11:42:05.241Z,1752.00
2024-02-07T11:43:05.226Z,1749.00
2024-02-07T11:44:05.236Z,1759.00
2024-02-07T11:45:05.237Z,1761.00
2024-02-07T11:46:05.279Z,1744.00
2024-02-07T11:47:05.263Z,1730.00
2024-02-07T11:48:05.303Z,1726.00
2024-02-07T11:49:05.274Z,1712.00
2024-02-07T11:50:05.298Z,1720.00
2024-02-07T11:51:05.257Z,1724.00
2024-02-07T11:52:05.247Z,1725.00
2024-02-07T11:53:05.394Z,1718.00
2024-02-07T11:54:05.295Z,1682.00
2024-02-07T11:55:05.256Z,1684.00
2024-02-07T11:56:05.370Z,1669.00
2024-02-07T11:57:05.250Z,1656.00
2024-02-07T11:58:05.286Z,1648.00
2024-02-07T11:59:05.316Z,1663.00
2024-02-07T12:00:05.261Z,1655.00
2024-02-07T12:01:05.316Z,1642.00
2024-02-07T12:02:05.294Z,1566.00
2024-02-07T12:03:05.276Z,1556.00
2024-02-07T12:04:05.693Z,1555.00
2024-02-07T12:05:05.380Z,1549.00
2024-02-07T12:06:05.705Z,1557.00
2024-02-07T12:07:05.371Z,1567.00
2024-02-07T12:08:05.323Z,1577.00
2024-02-07T12:09:05.289Z,1578.00
2024-02-07T12:10:05.286Z,1576.00
2024-02-07T12:11:07.404Z,1571.00
2024-02-07T12:12:05.282Z,1674.00
2024-02-07T12:13:05.322Z,1694.00
2024-02-07T12:14:05.307Z,1704.00
2024-02-07T12:15:05.308Z,1703.00
2024-02-07T12:16:05.315Z,1700.00
2024-02-07T12:17:05.351Z,1703.00
2024-02-07T12:18:05.308Z,1709.00
2024-02-07T12:19:05.343Z,1715.00
2024-02-07T12:20:05.567Z,1719.00
2024-02-07T12:21:05.554Z,1720.00